createdAt,value
2016-11-12T00:00:11.615Z,1026.2
2016-11-12T00:00:52.119Z,1026.15
2016-11-12T00:01:32.624Z,1026.16
2016-11-12T00:02:13.129Z,1026.17
2016-11-12T00:02:53.610Z,1026.17
2016-11-12T00:03:34.109Z,1026.17
2016-11-12T00:04:14.623Z,1026.19
2016-11-12T00:04:55.114Z,1026.13
2016-11-12T00:05:35.588Z,1026.14
2016-11-12T00:06:16.094Z,1026.16
2016-11-12T00:06:56.589Z,1026.17
2016-11-12T00:07:37.088Z,1026.15
2016-11-12T00:08:17.585Z,1026.18
2016-11-12T00:08:58.065Z,1026.16
2016-11-12T00:09:38.560Z,1026.19
2016-11-12T00:10:19.066Z,1026.15
2016-11-12T00:10:59.560Z,1026.22
2016-11-12T00:11:40.050Z,1026.16
2016-11-12T00:12:20.557Z,1026.17
2016-11-12T00:13:01.055Z,1026.19
2016-11-12T00:13:41.558Z,1026.16
2016-11-12T00:14:22.028Z,1026.15
2016-11-12T00:15:02.544Z,1026.19
2016-11-12T00:15:43.025Z,1026.19
2016-11-12T00:16:23.506Z,1026.18
2016-11-12T00:17:04.001Z,1026.15
2016-11-12T00:17:44.466Z,1026.17
2016-11-12T00:18:24.988Z,1026.15
2016-11-12T00:19:05.464Z,1026.15
2016-11-12T00:19:45.952Z,1026.16
2016-11-12T00:20:26.436Z,1026.1
2016-11-12T00:21:06.937Z,1026.13
2016-11-12T00:21:47.432Z,1026.15
2016-11-12T00:22:27.933Z,1026.09
2016-11-12T00:23:08.443Z,1026.14
2016-11-12T00:23:48.936Z,1026.15
2016-11-12T00:24:29.427Z,1026.12
2016-11-12T00:25:09.899Z,1026.13
2016-11-12T00:25:50.378Z,1026.13
2016-11-12T00:26:30.841Z,1026.15
2016-11-12T00:27:11.337Z,1026.12
2016-11-12T00:27:51.853Z,1026.07
2016-11-12T00:28:32.388Z,1026.09
2016-11-12T00:29:12.837Z,1026.09
2016-11-12T00:29:53.324Z,1026.08
2016-11-12T00:30:33.818Z,1026.08
2016-11-12T00:31:14.319Z,1026.07
2016-11-12T00:31:54.832Z,1026.11
2016-11-12T00:32:35.312Z,1026.08
2016-11-12T00:33:15.817Z,1026.07
2016-11-12T00:33:56.295Z,1026.1
2016-11-12T00:34:36.803Z,1026.06
2016-11-12T00:35:17.294Z,1026.03
2016-11-12T00:35:57.778Z,1026.04
2016-11-12T00:36:38.276Z,1026.03
2016-11-12T00:37:18.776Z,1026.02
2016-11-12T00:37:59.269Z,1026
2016-11-12T00:38:39.762Z,1026.04
2016-11-12T00:39:20.243Z,1025.98
2016-11-12T00:40:00.868Z,1026.03
2016-11-12T00:40:41.349Z,1026.01
2016-11-12T00:41:21.875Z,1025.98
2016-11-12T00:42:02.382Z,1025.99
2016-11-12T00:42:42.858Z,1025.98
2016-11-12T00:43:23.332Z,1025.99
2016-11-12T00:44:03.824Z,1026
2016-11-12T00:44:44.344Z,1026.01
2016-11-12T00:45:24.879Z,1026.01
2016-11-12T00:46:05.362Z,1026.04
2016-11-12T00:46:45.901Z,1026.05
2016-11-12T00:47:26.401Z,1026.06
2016-11-12T00:48:06.929Z,1025.99
2016-11-12T00:48:47.444Z,1026.03
2016-11-12T00:49:27.923Z,1026.02
2016-11-12T00:50:08.415Z,1026.04
2016-11-12T00:50:48.929Z,1026.03
2016-11-12T00:51:29.453Z,1026.02
2016-11-12T00:52:09.935Z,1026.01
2016-11-12T00:52:50.433Z,1026.05
2016-11-12T00:53:30.910Z,1025.98
2016-11-12T00:54:11.452Z,1026.01
2016-11-12T00:54:51.968Z,1026.08
2016-11-12T00:55:32.453Z,1026.03
2016-11-12T00:56:12.989Z,1026.05
2016-11-12T00:56:53.499Z,1026.05
2016-11-12T00:57:34.012Z,1026
2016-11-12T00:58:14.532Z,1026.03
2016-11-12T00:58:55.042Z,1026.05
2016-11-12T00:59:35.573Z,1026.01
2016-11-12T01:00:16.098Z,1026.02
2016-11-12T01:00:56.620Z,1026.02
2016-11-12T01:01:37.108Z,1025.98
2016-11-12T01:02:17.611Z,1026.06
2016-11-12T01:02:58.123Z,1026.01
2016-11-12T01:03:38.639Z,1026
2016-11-12T01:04:19.117Z,1026.01
2016-11-12T01:04:59.681Z,1026.02
2016-11-12T01:05:40.178Z,1026.05
2016-11-12T01:06:20.667Z,1026.01
2016-11-12T01:07:01.201Z,1026.04
2016-11-12T01:07:41.666Z,1026
2016-11-12T01:08:22.189Z,1026
2016-11-12T01:09:02.668Z,1026.01
2016-11-12T01:09:43.161Z,1026.01
2016-11-12T01:10:23.648Z,1026.02
2016-11-12T01:11:04.170Z,1026.04
2016-11-12T01:11:44.686Z,1026.07
2016-11-12T01:12:25.197Z,1026
2016-11-12T01:13:05.710Z,1026.02
2016-11-12T01:13:46.229Z,1026.04
2016-11-12T01:14:26.737Z,1026.04
2016-11-12T01:15:07.268Z,1026.04
2016-11-12T01:15:47.786Z,1026.06
2016-11-12T01:16:28.284Z,1026.04
2016-11-12T01:17:08.802Z,1026.02
2016-11-12T01:19:37.414Z,1026.01
2016-11-12T01:20:17.894Z,1026.05
2016-11-12T01:20:58.419Z,1026.05
2016-11-12T01:21:38.936Z,1026.04
2016-11-12T01:22:19.423Z,1026.04
2016-11-12T01:22:59.928Z,1026.05
2016-11-12T01:23:40.427Z,1026.04
2016-11-12T01:24:20.911Z,1026.06
2016-11-12T01:25:01.399Z,1026.09
2016-11-12T01:25:41.903Z,1026.08
2016-11-12T01:26:22.411Z,1026.03
2016-11-12T01:27:02.906Z,1026
2016-11-12T01:27:43.436Z,1026.09
2016-11-12T01:28:23.931Z,1026.07
2016-11-12T01:29:04.430Z,1026.06
2016-11-12T01:29:44.953Z,1026.04
2016-11-12T01:30:25.431Z,1026.07
2016-11-12T01:31:05.964Z,1026.04
2016-11-12T01:31:46.462Z,1026.03
2016-11-12T01:32:26.947Z,1026.08
2016-11-12T01:33:07.454Z,1026.05
2016-11-12T01:33:47.947Z,1026.06
2016-11-12T01:34:28.475Z,1026.07
2016-11-12T01:35:08.964Z,1026.07
2016-11-12T01:35:49.487Z,1026.11
2016-11-12T01:36:30.033Z,1026.09
2016-11-12T01:37:10.520Z,1026.08
2016-11-12T01:37:51.138Z,1026.11
2016-11-12T01:38:31.755Z,1026.08
2016-11-12T01:39:12.257Z,1026.08
2016-11-12T01:39:52.729Z,1026.05
2016-11-12T01:40:33.228Z,1026.07
2016-11-12T01:41:13.761Z,1026.06
2016-11-12T01:41:54.287Z,1026.05
2016-11-12T01:42:34.780Z,1026.05
2016-11-12T01:43:15.302Z,1026.06
2016-11-12T01:43:55.815Z,1026.05
2016-11-12T01:44:36.327Z,1026.02
2016-11-12T01:45:16.823Z,1026.05
2016-11-12T01:45:57.308Z,1026.06
2016-11-12T01:46:37.798Z,1026.02
2016-11-12T01:47:18.328Z,1026.02
2016-11-12T01:47:58.795Z,1026.01
2016-11-12T01:48:39.310Z,1026.04
2016-11-12T01:49:19.805Z,1026.01
2016-11-12T01:50:00.341Z,1026.04
2016-11-12T01:50:40.806Z,1026
2016-11-12T01:51:21.374Z,1026.01
2016-11-12T01:52:01.899Z,1026.05
2016-11-12T01:52:42.423Z,1026.03
2016-11-12T01:53:22.961Z,1026.1
2016-11-12T01:54:03.434Z,1026.1
2016-11-12T01:54:43.952Z,1026.06
2016-11-12T01:55:24.501Z,1026.11
2016-11-12T01:56:05.018Z,1026.1
2016-11-12T01:56:45.556Z,1026.09
2016-11-12T01:57:26.083Z,1026.12
2016-11-12T01:58:06.553Z,1026.09
2016-11-12T01:58:47.071Z,1026.08
2016-11-12T01:59:27.581Z,1026.1
2016-11-12T02:00:08.053Z,1026.11
2016-11-12T02:00:48.534Z,1026.13
2016-11-12T02:01:29.045Z,1026.04
2016-11-12T02:02:09.593Z,1026.07
2016-11-12T02:02:50.119Z,1026.04
2016-11-12T02:03:30.633Z,1026.07
2016-11-12T02:04:11.123Z,1026.05
2016-11-12T02:04:51.629Z,1026.07
2016-11-12T02:05:32.163Z,1026.09
2016-11-12T02:06:12.696Z,1026.09
2016-11-12T02:06:53.208Z,1026.12
2016-11-12T02:07:33.720Z,1026.13
2016-11-12T02:08:14.191Z,1026.09
2016-11-12T02:08:54.702Z,1026.11
2016-11-12T02:09:35.188Z,1026.14
2016-11-12T02:10:15.666Z,1026.13
2016-11-12T02:10:56.171Z,1026.14
2016-11-12T02:11:36.682Z,1026.12
2016-11-12T02:12:17.178Z,1026.13
2016-11-12T02:12:57.671Z,1026.1
2016-11-12T02:13:38.197Z,1026.16
2016-11-12T02:14:18.728Z,1026.15
2016-11-12T02:14:59.185Z,1026.14
2016-11-12T02:15:39.666Z,1026.11
2016-11-12T02:16:20.164Z,1026.13
2016-11-12T02:17:00.664Z,1026.12
2016-11-12T02:17:41.161Z,1026.1
2016-11-12T02:18:21.639Z,1026.11
2016-11-12T02:19:02.114Z,1026.11
2016-11-12T02:19:42.606Z,1026.12
2016-11-12T02:20:23.108Z,1026.12
2016-11-12T02:21:03.638Z,1026.12
2016-11-12T02:21:44.127Z,1026.09
2016-11-12T02:22:24.616Z,1026.11
2016-11-12T02:23:05.103Z,1026.13
2016-11-12T02:23:45.645Z,1026.11
2016-11-12T02:24:26.170Z,1026.14
2016-11-12T02:25:06.688Z,1026.16
2016-11-12T02:25:47.169Z,1026.18
2016-11-12T02:26:27.680Z,1026.16
2016-11-12T02:27:08.180Z,1026.16
2016-11-12T02:27:48.643Z,1026.18
2016-11-12T02:28:29.135Z,1026.19
2016-11-12T02:29:09.634Z,1026.13
2016-11-12T02:29:50.144Z,1026.18
2016-11-12T02:30:30.655Z,1026.21
2016-11-12T02:31:11.162Z,1026.1
2016-11-12T02:31:51.707Z,1026.11
2016-11-12T02:32:32.190Z,1026.14
2016-11-12T02:33:12.706Z,1026.09
2016-11-12T02:33:53.195Z,1026.1
2016-11-12T02:34:33.696Z,1026.08
2016-11-12T02:35:14.203Z,1026.08
2016-11-12T02:35:54.714Z,1026.1
2016-11-12T02:36:35.199Z,1026.06
2016-11-12T02:37:15.717Z,1026.06
2016-11-12T02:37:56.202Z,1026.08
2016-11-12T02:38:36.678Z,1026.08
2016-11-12T02:39:17.169Z,1026.1
2016-11-12T02:39:57.645Z,1026.12
2016-11-12T02:40:38.168Z,1026.09
2016-11-12T02:41:18.661Z,1026.1
2016-11-12T02:41:59.180Z,1026.09
2016-11-12T02:42:39.667Z,1026.11
2016-11-12T02:43:20.153Z,1026.1
2016-11-12T02:44:00.733Z,1026.08
2016-11-12T02:44:41.231Z,1026.09
2016-11-12T02:45:21.733Z,1026.12
2016-11-12T02:46:02.225Z,1026.06
2016-11-12T02:46:42.731Z,1026.04
2016-11-12T02:47:23.240Z,1026.06
2016-11-12T02:48:03.730Z,1026.05
2016-11-12T02:48:44.211Z,1026.06
2016-11-12T02:49:24.731Z,1026.04
2016-11-12T02:50:05.252Z,1026.03
2016-11-12T03:10:54.707Z,1026.11
2016-11-12T03:11:35.215Z,1026.08
2016-11-12T03:12:15.755Z,1026.09
2016-11-12T03:12:56.171Z,1026.06
2016-11-12T03:13:36.677Z,1026.1
2016-11-12T03:14:17.156Z,1026.09
2016-11-12T03:14:57.598Z,1026.06
2016-11-12T03:15:38.090Z,1026.06
2016-11-12T03:16:18.573Z,1026.03
2016-11-12T03:16:59.043Z,1026.05
2016-11-12T03:17:39.524Z,1026.04
2016-11-12T03:18:21.780Z,1026.03
2016-11-12T03:19:02.274Z,1025.99
2016-11-12T03:19:42.743Z,1026.01
2016-11-12T03:20:23.220Z,1026.01
2016-11-12T03:21:03.687Z,1025.98
2016-11-12T03:21:44.166Z,1025.99
2016-11-12T03:22:24.648Z,1026.01
2016-11-12T03:23:05.119Z,1025.99
2016-11-12T03:23:45.626Z,1025.96
2016-11-12T03:24:26.096Z,1025.97
2016-11-12T03:25:06.566Z,1025.97
2016-11-12T03:25:47.056Z,1026.01
2016-11-12T03:27:45.294Z,1026.01
2016-11-12T03:28:25.761Z,1026
2016-11-12T03:29:06.219Z,1026
2016-11-12T03:29:46.717Z,1025.98
2016-11-12T03:30:27.216Z,1026.03
2016-11-12T03:31:07.695Z,1025.93
2016-11-12T03:31:48.180Z,1025.94
2016-11-12T03:32:28.643Z,1025.96
2016-11-12T03:33:09.146Z,1025.96
2016-11-12T03:33:49.637Z,1025.96
2016-11-12T03:39:24.721Z,1025.88
2016-11-12T03:40:05.214Z,1025.91
2016-11-12T03:40:45.753Z,1025.84
2016-11-12T03:43:05.152Z,1025.87
2016-11-12T03:43:46.042Z,1025.82
2016-11-12T03:44:26.551Z,1025.8
2016-11-12T03:45:07.053Z,1025.78
2016-11-12T03:45:47.539Z,1025.9
2016-11-12T03:46:27.998Z,1025.87
2016-11-12T03:47:08.489Z,1025.86
2016-11-12T03:47:48.959Z,1025.89
2016-11-12T03:48:29.458Z,1025.83
2016-11-12T03:49:09.934Z,1025.84
2016-11-12T03:49:50.392Z,1025.82
2016-11-12T03:50:30.867Z,1025.83
2016-11-12T03:51:11.324Z,1025.76
2016-11-12T03:51:51.822Z,1025.77
2016-11-12T03:52:32.312Z,1025.73
2016-11-12T03:53:12.884Z,1025.78
2016-11-12T03:53:53.329Z,1025.77
2016-11-12T03:54:33.844Z,1025.77
2016-11-12T03:55:14.306Z,1025.76
2016-11-12T03:55:54.772Z,1025.73
2016-11-12T03:56:35.252Z,1025.77
2016-11-12T03:57:15.758Z,1025.81
2016-11-12T03:57:56.210Z,1025.83
2016-11-12T03:58:36.686Z,1025.84
2016-11-12T03:59:17.177Z,1025.78
2016-11-12T03:59:57.680Z,1025.85
2016-11-12T04:00:38.160Z,1025.8
2016-11-12T04:01:18.654Z,1025.82
2016-11-12T04:01:59.121Z,1025.8
2016-11-12T04:02:39.608Z,1025.79
2016-11-12T04:03:20.100Z,1025.82
2016-11-12T04:04:00.575Z,1025.78
2016-11-12T04:04:41.069Z,1025.8
2016-11-12T04:05:21.554Z,1025.73
2016-11-12T04:06:02.048Z,1025.78
2016-11-12T04:06:42.525Z,1025.77
2016-11-12T04:07:23.054Z,1025.78
2016-11-12T04:08:03.569Z,1025.79
2016-11-12T04:08:44.074Z,1025.82
2016-11-12T04:09:24.547Z,1025.78
2016-11-12T04:10:05.059Z,1025.82
2016-11-12T04:10:45.560Z,1025.82
2016-11-12T04:11:26.057Z,1025.86
2016-11-12T04:12:06.529Z,1025.81
2016-11-12T04:12:47.021Z,1025.8
2016-11-12T04:13:27.482Z,1025.81
2016-11-12T04:14:07.962Z,1025.84
2016-11-12T04:14:48.418Z,1025.84
2016-11-12T04:15:28.896Z,1025.77
2016-11-12T04:16:09.379Z,1025.8
2016-11-12T04:16:49.823Z,1025.8
2016-11-12T04:17:30.325Z,1025.8
2016-11-12T04:18:10.798Z,1025.78
2016-11-12T04:18:51.295Z,1025.81
2016-11-12T04:19:31.783Z,1025.82
2016-11-12T04:20:12.268Z,1025.81
2016-11-12T04:20:52.766Z,1025.8
2016-11-12T04:21:33.250Z,1025.83
2016-11-12T04:22:13.727Z,1025.84
2016-11-12T04:22:54.209Z,1025.87
2016-11-12T04:23:34.693Z,1025.86
2016-11-12T04:24:15.217Z,1025.85
2016-11-12T04:24:55.707Z,1025.88
2016-11-12T04:25:36.178Z,1025.86
2016-11-12T04:26:16.683Z,1025.84
2016-11-12T04:26:57.157Z,1025.77
2016-11-12T04:27:37.635Z,1025.82
2016-11-12T04:28:18.110Z,1025.85
2016-11-12T04:28:58.573Z,1025.82
2016-11-12T04:29:39.035Z,1025.81
2016-11-12T04:30:19.527Z,1025.78
2016-11-12T04:30:59.964Z,1025.82
2016-11-12T04:31:40.446Z,1025.79
2016-11-12T04:32:20.957Z,1025.84
2016-11-12T04:33:01.434Z,1025.81
2016-11-12T04:33:41.908Z,1025.79
2016-11-12T04:34:22.364Z,1025.82
2016-11-12T04:35:02.834Z,1025.78
2016-11-12T04:35:43.303Z,1025.8
2016-11-12T04:36:23.761Z,1025.82
2016-11-12T04:37:04.262Z,1025.82
2016-11-12T04:37:44.750Z,1025.79
2016-11-12T04:38:25.226Z,1025.8
2016-11-12T04:39:05.731Z,1025.83
2016-11-12T04:39:46.215Z,1025.74
2016-11-12T04:40:26.756Z,1025.77
2016-11-12T04:41:07.213Z,1025.72
2016-11-12T04:41:47.724Z,1025.82
2016-11-12T04:42:28.243Z,1025.78
2016-11-12T04:43:08.765Z,1025.79
2016-11-12T04:43:49.238Z,1025.73
2016-11-12T04:44:29.728Z,1025.81
2016-11-12T04:45:10.221Z,1025.81
2016-11-12T04:45:50.715Z,1025.79
2016-11-12T04:46:31.180Z,1025.84
2016-11-12T04:47:11.683Z,1025.83
2016-11-12T04:47:52.143Z,1025.84
2016-11-12T04:48:32.610Z,1025.82
2016-11-12T04:49:13.114Z,1025.84
2016-11-12T04:51:12.200Z,1025.84
2016-11-12T04:51:52.687Z,1025.86
2016-11-12T04:52:33.211Z,1025.82
2016-11-12T04:53:13.665Z,1025.84
2016-11-12T04:53:54.135Z,1025.86
2016-11-12T04:54:34.616Z,1025.85
2016-11-12T04:55:15.114Z,1025.82
2016-11-12T04:55:55.593Z,1025.81
2016-11-12T04:56:36.059Z,1025.86
2016-11-12T04:57:16.545Z,1025.88
2016-11-12T04:57:57.018Z,1025.88
2016-11-12T04:58:37.492Z,1025.9
2016-11-12T04:59:17.964Z,1025.9
2016-11-12T04:59:58.417Z,1025.87
2016-11-12T05:00:38.903Z,1025.91
2016-11-12T05:01:19.375Z,1025.87
2016-11-12T05:01:59.863Z,1025.92
2016-11-12T05:02:40.336Z,1025.91
2016-11-12T05:03:20.818Z,1025.89
2016-11-12T05:04:01.306Z,1025.93
2016-11-12T05:04:41.790Z,1025.92
2016-11-12T05:05:22.277Z,1025.94
2016-11-12T05:06:02.794Z,1025.96
2016-11-12T05:06:43.303Z,1025.92
2016-11-12T05:07:23.789Z,1025.99
2016-11-12T05:08:04.273Z,1025.93
2016-11-12T05:08:44.740Z,1025.9
2016-11-12T05:09:25.215Z,1025.91
2016-11-12T05:10:05.692Z,1025.91
2016-11-12T05:10:46.176Z,1025.99
2016-11-12T05:11:26.642Z,1025.96
2016-11-12T05:12:07.147Z,1025.93
2016-11-12T05:12:47.600Z,1025.89
2016-11-12T05:13:28.148Z,1025.92
2016-11-12T05:14:08.635Z,1025.91
2016-11-12T05:14:49.121Z,1025.91
2016-11-12T05:15:29.620Z,1025.88
2016-11-12T05:16:10.102Z,1025.89
2016-11-12T05:16:50.556Z,1025.88
2016-11-12T05:17:31.025Z,1025.86
2016-11-12T05:18:11.500Z,1025.87
2016-11-12T05:18:51.967Z,1025.88
2016-11-12T05:19:32.482Z,1025.88
2016-11-12T05:20:12.968Z,1025.9
